sensor_id;sensor_type;location;lat;lon;timestamp;P1;durP1;ratioP1;P2;durP2;ratioP2
21239;SDS011;10778;48.962;9.018;2023-04-15T00:01:44;7.03;;;2.55;;
21239;SDS011;10778;48.962;9.018;2023-04-15T00:04:10;6.30;;;2.25;;
21239;SDS011;10778;48.962;9.018;2023-04-15T00:06:37;4.82;;;2.20;;
21239;SDS011;10778;48.962;9.018;2023-04-15T00:09:05;6.82;;;2.20;;
21239;SDS011;10778;48.962;9.018;2023-04-15T00:11:31;4.63;;;2.03;;
21239;SDS011;10778;48.962;9.018;2023-04-15T00:14:00;4.65;;;2.10;;
21239;SDS011;10778;48.962;9.018;2023-04-15T00:16:26;5.43;;;2.10;;
21239;SDS011;10778;48.962;9.018;2023-04-15T00:18:52;2.95;;;2.05;;
21239;SDS011;10778;48.962;9.018;2023-04-15T00:21:18;3.00;;;2.00;;
21239;SDS011;10778;48.962;9.018;2023-04-15T00:23:44;3.30;;;1.88;;
21239;SDS011;10778;48.962;9.018;2023-04-15T00:26:14;5.28;;;2.45;;
21239;SDS011;10778;48.962;9.018;2023-04-15T00:28:41;5.40;;;2.45;;
21239;SDS011;10778;48.962;9.018;2023-04-15T00:31:08;5.53;;;2.03;;
21239;SDS011;10778;48.962;9.018;2023-04-15T00:33:36;3.53;;;2.10;;
21239;SDS011;10778;48.962;9.018;2023-04-15T00:36:03;3.78;;;2.30;;
21239;SDS011;10778;48.962;9.018;2023-04-15T00:38:31;3.17;;;2.00;;
21239;SDS011;10778;48.962;9.018;2023-04-15T00:40:57;4.18;;;2.25;;
21239;SDS011;10778;48.962;9.018;2023-04-15T00:43:24;4.22;;;2.10;;
21239;SDS011;10778;48.962;9.018;2023-04-15T00:45:51;4.80;;;2.17;;
21239;SDS011;10778;48.962;9.018;2023-04-15T00:48:19;4.60;;;2.40;;
21239;SDS011;10778;48.962;9.018;2023-04-15T00:50:45;3.45;;;2.30;;
21239;SDS011;10778;48.962;9.018;2023-04-15T00:53:11;5.13;;;2.45;;
21239;SDS011;10778;48.962;9.018;2023-04-15T00:55:38;3.17;;;2.13;;
21239;SDS011;10778;48.962;9.018;2023-04-15T00:58:04;3.80;;;2.35;;
21239;SDS011;10778;48.962;9.018;2023-04-15T01:00:31;4.00;;;2.38;;
21239;SDS011;10778;48.962;9.018;2023-04-15T01:02:57;6.07;;;2.47;;
21239;SDS011;10778;48.962;9.018;2023-04-15T01:05:23;5.18;;;2.70;;
21239;SDS011;10778;48.962;9.018;2023-04-15T01:07:49;4.57;;;2.60;;
21239;SDS011;10778;48.962;9.018;2023-04-15T01:10:15;5.38;;;2.78;;
21239;SDS011;10778;48.962;9.018;2023-04-15T01:12:42;4.93;;;2.55;;
21239;SDS011;10778;48.962;9.018;2023-04-15T01:15:09;5.00;;;2.65;;
21239;SDS011;10778;48.962;9.018;2023-04-15T01:17:35;5.20;;;2.53;;
21239;SDS011;10778;48.962;9.018;2023-04-15T01:20:02;4.22;;;2.42;;
21239;SDS011;10778;48.962;9.018;2023-04-15T01:22:29;5.25;;;2.70;;
21239;SDS011;10778;48.962;9.018;2023-04-15T01:25:09;4.55;;;2.53;;
21239;SDS011;10778;48.962;9.018;2023-04-15T01:27:38;4.22;;;2.58;;
21239;SDS011;10778;48.962;9.018;2023-04-15T01:30:06;6.90;;;2.90;;
21239;SDS011;10778;48.962;9.018;2023-04-15T01:32:36;4.78;;;2.72;;
21239;SDS011;10778;48.962;9.018;2023-04-15T01:35:02;5.60;;;2.70;;
21239;SDS011;10778;48.962;9.018;2023-04-15T01:37:28;6.20;;;2.95;;
21239;SDS011;10778;48.962;9.018;2023-04-15T01:39:55;5.82;;;3.00;;
21239;SDS011;10778;48.962;9.018;2023-04-15T01:42:23;7.15;;;3.50;;
21239;SDS011;10778;48.962;9.018;2023-04-15T01:44:52;6.95;;;3.35;;
21239;SDS011;10778;48.962;9.018;2023-04-15T01:47:19;7.32;;;3.58;;
21239;SDS011;10778;48.962;9.018;2023-04-15T01:49:46;7.20;;;3.35;;
21239;SDS011;10778;48.962;9.018;2023-04-15T01:52:15;6.53;;;3.33;;
21239;SDS011;10778;48.962;9.018;2023-04-15T01:54:41;7.50;;;3.63;;
21239;SDS011;10778;48.962;9.018;2023-04-15T01:57:08;7.65;;;3.40;;
21239;SDS011;10778;48.962;9.018;2023-04-15T01:59:34;7.63;;;3.78;;
21239;SDS011;10778;48.962;9.018;2023-04-15T02:02:00;5.05;;;3.47;;
21239;SDS011;10778;48.962;9.018;2023-04-15T02:04:26;7.07;;;3.42;;
21239;SDS011;10778;48.962;9.018;2023-04-15T02:06:53;9.07;;;3.80;;
21239;SDS011;10778;48.962;9.018;2023-04-15T02:09:20;6.10;;;3.30;;
21239;SDS011;10778;48.962;9.018;2023-04-15T02:11:46;5.20;;;3.55;;
21239;SDS011;10778;48.962;9.018;2023-04-15T02:14:12;6.25;;;3.53;;
21239;SDS011;10778;48.962;9.018;2023-04-15T02:16:39;6.90;;;3.08;;
21239;SDS011;10778;48.962;9.018;2023-04-15T02:19:06;5.40;;;3.05;;
21239;SDS011;10778;48.962;9.018;2023-04-15T02:21:33;4.88;;;2.80;;
21239;SDS011;10778;48.962;9.018;2023-04-15T02:24:00;4.53;;;2.85;;
21239;SDS011;10778;48.962;9.018;2023-04-15T02:26:27;4.13;;;2.72;;
21239;SDS011;10778;48.962;9.018;2023-04-15T02:28:56;7.03;;;2.85;;
21239;SDS011;10778;48.962;9.018;2023-04-15T02:31:29;5.30;;;2.85;;
21239;SDS011;10778;48.962;9.018;2023-04-15T02:33:55;5.82;;;3.03;;
21239;SDS011;10778;48.962;9.018;2023-04-15T02:36:21;4.53;;;2.92;;
21239;SDS011;10778;48.962;9.018;2023-04-15T02:38:48;5.45;;;3.10;;
21239;SDS011;10778;48.962;9.018;2023-04-15T02:41:15;5.65;;;2.70;;
21239;SDS011;10778;48.962;9.018;2023-04-15T02:43:44;5.43;;;3.00;;
21239;SDS011;10778;48.962;9.018;2023-04-15T02:46:11;3.88;;;2.97;;
21239;SDS011;10778;48.962;9.018;2023-04-15T02:48:39;5.50;;;3.20;;
21239;SDS011;10778;48.962;9.018;2023-04-15T02:51:12;7.03;;;3.45;;
21239;SDS011;10778;48.962;9.018;2023-04-15T02:53:44;6.85;;;3.60;;
21239;SDS011;10778;48.962;9.018;2023-04-15T02:56:11;6.55;;;3.33;;
21239;SDS011;10778;48.962;9.018;2023-04-15T02:58:40;4.57;;;3.20;;
21239;SDS011;10778;48.962;9.018;2023-04-15T03:01:07;6.68;;;3.50;;
21239;SDS011;10778;48.962;9.018;2023-04-15T03:03:34;5.18;;;3.17;;
21239;SDS011;10778;48.962;9.018;2023-04-15T03:06:00;5.15;;;3.17;;
21239;SDS011;10778;48.962;9.018;2023-04-15T03:08:27;6.05;;;2.90;;
21239;SDS011;10778;48.962;9.018;2023-04-15T03:10:56;5.13;;;2.72;;
21239;SDS011;10778;48.962;9.018;2023-04-15T03:13:25;5.53;;;2.90;;
21239;SDS011;10778;48.962;9.018;2023-04-15T03:15:53;5.22;;;3.00;;
21239;SDS011;10778;48.962;9.018;2023-04-15T03:18:21;5.65;;;3.15;;
21239;SDS011;10778;48.962;9.018;2023-04-15T03:20:48;7.05;;;3.65;;
21239;SDS011;10778;48.962;9.018;2023-04-15T03:23:14;6.00;;;3.65;;
21239;SDS011;10778;48.962;9.018;2023-04-15T03:25:40;8.18;;;3.35;;
21239;SDS011;10778;48.962;9.018;2023-04-15T03:28:09;8.38;;;4.03;;
21239;SDS011;10778;48.962;9.018;2023-04-15T03:30:36;6.53;;;3.45;;
21239;SDS011;10778;48.962;9.018;2023-04-15T03:33:02;5.13;;;3.47;;
21239;SDS011;10778;48.962;9.018;2023-04-15T03:35:28;6.00;;;3.10;;
21239;SDS011;10778;48.962;9.018;2023-04-15T03:37:55;5.97;;;3.30;;
21239;SDS011;10778;48.962;9.018;2023-04-15T03:40:21;6.47;;;3.08;;
21239;SDS011;10778;48.962;9.018;2023-04-15T03:42:47;6.20;;;3.25;;
21239;SDS011;10778;48.962;9.018;2023-04-15T03:45:13;7.80;;;4.07;;
21239;SDS011;10778;48.962;9.018;2023-04-15T03:47:39;7.03;;;3.90;;
21239;SDS011;10778;48.962;9.018;2023-04-15T03:50:05;7.88;;;3.95;;
21239;SDS011;10778;48.962;9.018;2023-04-15T03:52:31;6.90;;;3.58;;
21239;SDS011;10778;48.962;9.018;2023-04-15T03:54:57;9.75;;;3.75;;
21239;SDS011;10778;48.962;9.018;2023-04-15T03:57:23;6.03;;;3.40;;
21239;SDS011;10778;48.962;9.018;2023-04-15T03:59:50;5.60;;;3.28;;
21239;SDS011;10778;48.962;9.018;2023-04-15T04:02:16;5.95;;;3.50;;
21239;SDS011;10778;48.962;9.018;2023-04-15T04:04:42;5.07;;;3.33;;
21239;SDS011;10778;48.962;9.018;2023-04-15T04:07:13;6.00;;;3.53;;
21239;SDS011;10778;48.962;9.018;2023-04-15T04:09:40;6.32;;;3.47;;
21239;SDS011;10778;48.962;9.018;2023-04-15T04:12:06;6.43;;;3.72;;
21239;SDS011;10778;48.962;9.018;2023-04-15T04:14:32;5.50;;;3.63;;
21239;SDS011;10778;48.962;9.018;2023-04-15T04:16:58;8.43;;;4.00;;
21239;SDS011;10778;48.962;9.018;2023-04-15T04:19:25;5.40;;;3.50;;
21239;SDS011;10778;48.962;9.018;2023-04-15T04:21:51;6.47;;;3.72;;
21239;SDS011;10778;48.962;9.018;2023-04-15T04:24:17;9.88;;;3.92;;
21239;SDS011;10778;48.962;9.018;2023-04-15T04:26:43;5.13;;;3.50;;
21239;SDS011;10778;48.962;9.018;2023-04-15T04:29:16;6.05;;;3.17;;
21239;SDS011;10778;48.962;9.018;2023-04-15T04:31:42;5.53;;;3.20;;
21239;SDS011;10778;48.962;9.018;2023-04-15T04:34:08;5.68;;;3.08;;
21239;SDS011;10778;48.962;9.018;2023-04-15T04:36:34;4.50;;;3.05;;
21239;SDS011;10778;48.962;9.018;2023-04-15T04:39:04;6.50;;;3.22;;
21239;SDS011;10778;48.962;9.018;2023-04-15T04:41:30;5.53;;;3.50;;
21239;SDS011;10778;48.962;9.018;2023-04-15T04:43:57;6.78;;;3.30;;
21239;SDS011;10778;48.962;9.018;2023-04-15T04:46:22;6.30;;;3.58;;
21239;SDS011;10778;48.962;9.018;2023-04-15T04:48:48;7.72;;;3.67;;
21239;SDS011;10778;48.962;9.018;2023-04-15T04:51:15;6.38;;;3.42;;
21239;SDS011;10778;48.962;9.018;2023-04-15T04:53:41;6.60;;;3.03;;
21239;SDS011;10778;48.962;9.018;2023-04-15T04:56:08;7.18;;;3.33;;
21239;SDS011;10778;48.962;9.018;2023-04-15T04:58:34;5.35;;;2.75;;
21239;SDS011;10778;48.962;9.018;2023-04-15T05:01:00;5.38;;;2.88;;
21239;SDS011;10778;48.962;9.018;2023-04-15T05:03:26;6.40;;;2.90;;
21239;SDS011;10778;48.962;9.018;2023-04-15T05:05:52;6.15;;;3.33;;
21239;SDS011;10778;48.962;9.018;2023-04-15T05:08:19;5.70;;;3.70;;
21239;SDS011;10778;48.962;9.018;2023-04-15T05:10:46;12.13;;;6.25;;
21239;SDS011;10778;48.962;9.018;2023-04-15T05:19:44;29.95;;;15.00;;
21239;SDS011;10778;48.962;9.018;2023-04-15T05:22:10;18.20;;;10.30;;
21239;SDS011;10778;48.962;9.018;2023-04-15T05:24:36;11.13;;;6.32;;
21239;SDS011;10778;48.962;9.018;2023-04-15T05:27:02;10.18;;;7.78;;
21239;SDS011;10778;48.962;9.018;2023-04-15T05:29:29;7.85;;;6.00;;
21239;SDS011;10778;48.962;9.018;2023-04-15T05:31:58;6.22;;;5.07;;
21239;SDS011;10778;48.962;9.018;2023-04-15T05:34:25;6.43;;;4.07;;
21239;SDS011;10778;48.962;9.018;2023-04-15T05:36:51;6.18;;;4.07;;
21239;SDS011;10778;48.962;9.018;2023-04-15T05:39:17;7.30;;;4.82;;
21239;SDS011;10778;48.962;9.018;2023-04-15T05:41:43;9.48;;;5.20;;
21239;SDS011;10778;48.962;9.018;2023-04-15T05:44:12;9.07;;;4.50;;
21239;SDS011;10778;48.962;9.018;2023-04-15T05:46:40;8.65;;;4.18;;
21239;SDS011;10778;48.962;9.018;2023-04-15T05:49:07;7.85;;;3.92;;
21239;SDS011;10778;48.962;9.018;2023-04-15T05:51:33;7.55;;;3.58;;
21239;SDS011;10778;48.962;9.018;2023-04-15T05:53:59;6.55;;;3.13;;
21239;SDS011;10778;48.962;9.018;2023-04-15T05:56:25;6.30;;;3.50;;
21239;SDS011;10778;48.962;9.018;2023-04-15T05:58:51;5.65;;;3.40;;
21239;SDS011;10778;48.962;9.018;2023-04-15T06:01:18;6.75;;;3.75;;
21239;SDS011;10778;48.962;9.018;2023-04-15T06:03:47;6.32;;;4.13;;
21239;SDS011;10778;48.962;9.018;2023-04-15T06:06:13;6.72;;;4.05;;
21239;SDS011;10778;48.962;9.018;2023-04-15T06:08:40;6.93;;;4.07;;
21239;SDS011;10778;48.962;9.018;2023-04-15T06:11:06;9.77;;;3.80;;
21239;SDS011;10778;48.962;9.018;2023-04-15T06:13:32;9.35;;;4.40;;
21239;SDS011;10778;48.962;9.018;2023-04-15T06:15:59;8.48;;;4.75;;
21239;SDS011;10778;48.962;9.018;2023-04-15T06:18:29;9.25;;;4.50;;
21239;SDS011;10778;48.962;9.018;2023-04-15T06:20:55;8.05;;;4.53;;
21239;SDS011;10778;48.962;9.018;2023-04-15T06:23:22;8.40;;;5.55;;
21239;SDS011;10778;48.962;9.018;2023-04-15T06:25:51;9.73;;;5.72;;
21239;SDS011;10778;48.962;9.018;2023-04-15T06:28:18;8.60;;;5.70;;
21239;SDS011;10778;48.962;9.018;2023-04-15T06:30:44;10.38;;;5.88;;
21239;SDS011;10778;48.962;9.018;2023-04-15T06:33:10;10.50;;;5.88;;
21239;SDS011;10778;48.962;9.018;2023-04-15T06:35:36;7.28;;;5.13;;
21239;SDS011;10778;48.962;9.018;2023-04-15T06:38:02;10.93;;;5.15;;
21239;SDS011;10778;48.962;9.018;2023-04-15T06:40:29;9.10;;;4.88;;
21239;SDS011;10778;48.962;9.018;2023-04-15T06:42:55;10.70;;;4.80;;
21239;SDS011;10778;48.962;9.018;2023-04-15T06:45:21;6.97;;;4.75;;
21239;SDS011;10778;48.962;9.018;2023-04-15T06:47:47;7.53;;;4.82;;
21239;SDS011;10778;48.962;9.018;2023-04-15T06:50:13;7.93;;;4.43;;
21239;SDS011;10778;48.962;9.018;2023-04-15T06:52:39;7.65;;;4.45;;
21239;SDS011;10778;48.962;9.018;2023-04-15T06:55:06;8.77;;;4.50;;
21239;SDS011;10778;48.962;9.018;2023-04-15T06:57:32;9.88;;;4.63;;
21239;SDS011;10778;48.962;9.018;2023-04-15T06:59:58;8.93;;;4.38;;
21239;SDS011;10778;48.962;9.018;2023-04-15T07:02:25;9.82;;;4.50;;
21239;SDS011;10778;48.962;9.018;2023-04-15T07:04:51;7.65;;;4.45;;
21239;SDS011;10778;48.962;9.018;2023-04-15T07:07:25;7.78;;;4.68;;
21239;SDS011;10778;48.962;9.018;2023-04-15T07:09:53;7.68;;;4.38;;
21239;SDS011;10778;48.962;9.018;2023-04-15T07:12:20;6.88;;;4.45;;
21239;SDS011;10778;48.962;9.018;2023-04-15T07:14:46;9.15;;;4.38;;
21239;SDS011;10778;48.962;9.018;2023-04-15T07:17:14;8.70;;;4.68;;
21239;SDS011;10778;48.962;9.018;2023-04-15T07:19:42;6.68;;;4.60;;
21239;SDS011;10778;48.962;9.018;2023-04-15T07:22:08;8.82;;;4.82;;
21239;SDS011;10778;48.962;9.018;2023-04-15T07:24:36;8.68;;;4.70;;
21239;SDS011;10778;48.962;9.018;2023-04-15T07:27:02;9.93;;;4.80;;
21239;SDS011;10778;48.962;9.018;2023-04-15T07:29:28;6.38;;;4.10;;
21239;SDS011;10778;48.962;9.018;2023-04-15T07:31:54;7.38;;;4.25;;
21239;SDS011;10778;48.962;9.018;2023-04-15T07:34:33;5.07;;;3.83;;
21239;SDS011;10778;48.962;9.018;2023-04-15T07:37:03;8.38;;;4.72;;
21239;SDS011;10778;48.962;9.018;2023-04-15T07:39:29;7.90;;;4.78;;
21239;SDS011;10778;48.962;9.018;2023-04-15T07:42:02;10.32;;;5.65;;
21239;SDS011;10778;48.962;9.018;2023-04-15T07:44:35;7.13;;;5.45;;
21239;SDS011;10778;48.962;9.018;2023-04-15T07:47:04;10.60;;;5.15;;
21239;SDS011;10778;48.962;9.018;2023-04-15T07:49:40;11.00;;;5.13;;
21239;SDS011;10778;48.962;9.018;2023-04-15T07:52:19;9.02;;;4.85;;
21239;SDS011;10778;48.962;9.018;2023-04-15T07:54:50;8.68;;;4.90;;
21239;SDS011;10778;48.962;9.018;2023-04-15T07:57:22;9.73;;;5.00;;
21239;SDS011;10778;48.962;9.018;2023-04-15T08:00:39;9.63;;;4.72;;
21239;SDS011;10778;48.962;9.018;2023-04-15T08:03:42;7.38;;;4.30;;
21239;SDS011;10778;48.962;9.018;2023-04-15T08:10:13;11.18;;;4.60;;
21239;SDS011;10778;48.962;9.018;2023-04-15T08:12:34;8.80;;;4.40;;
21239;SDS011;10778;48.962;9.018;2023-04-15T08:15:33;8.15;;;4.45;;
21239;SDS011;10778;48.962;9.018;2023-04-15T08:18:00;7.18;;;4.15;;
21239;SDS011;10778;48.962;9.018;2023-04-15T08:20:38;8.27;;;4.53;;
21239;SDS011;10778;48.962;9.018;2023-04-15T08:23:05;7.22;;;4.10;;
21239;SDS011;10778;48.962;9.018;2023-04-15T08:25:31;8.00;;;4.50;;
21239;SDS011;10778;48.962;9.018;2023-04-15T08:27:57;7.00;;;3.90;;
21239;SDS011;10778;48.962;9.018;2023-04-15T08:30:23;7.68;;;4.05;;
21239;SDS011;10778;48.962;9.018;2023-04-15T08:32:49;8.90;;;3.97;;
21239;SDS011;10778;48.962;9.018;2023-04-15T08:35:15;8.30;;;3.88;;
21239;SDS011;10778;48.962;9.018;2023-04-15T08:37:42;6.20;;;3.45;;
21239;SDS011;10778;48.962;9.018;2023-04-15T08:40:08;7.78;;;3.53;;
21239;SDS011;10778;48.962;9.018;2023-04-15T08:42:36;6.15;;;3.47;;
21239;SDS011;10778;48.962;9.018;2023-04-15T08:45:09;8.45;;;3.67;;
21239;SDS011;10778;48.962;9.018;2023-04-15T08:47:36;12.25;;;3.83;;
21239;SDS011;10778;48.962;9.018;2023-04-15T08:50:04;6.03;;;3.63;;
21239;SDS011;10778;48.962;9.018;2023-04-15T08:52:34;10.27;;;3.75;;
21239;SDS011;10778;48.962;9.018;2023-04-15T08:55:01;8.73;;;3.60;;
21239;SDS011;10778;48.962;9.018;2023-04-15T08:57:28;6.13;;;3.53;;
21239;SDS011;10778;48.962;9.018;2023-04-15T08:59:54;8.65;;;3.38;;
21239;SDS011;10778;48.962;9.018;2023-04-15T09:02:21;8.27;;;3.60;;
21239;SDS011;10778;48.962;9.018;2023-04-15T09:04:49;8.02;;;3.25;;
21239;SDS011;10778;48.962;9.018;2023-04-15T09:07:15;11.38;;;3.72;;
21239;SDS011;10778;48.962;9.018;2023-04-15T09:09:42;9.10;;;3.30;;
21239;SDS011;10778;48.962;9.018;2023-04-15T09:12:08;6.35;;;3.38;;
21239;SDS011;10778;48.962;9.018;2023-04-15T09:14:35;7.70;;;3.40;;
21239;SDS011;10778;48.962;9.018;2023-04-15T09:17:02;6.22;;;3.15;;
21239;SDS011;10778;48.962;9.018;2023-04-15T09:19:30;5.88;;;3.33;;
21239;SDS011;10778;48.962;9.018;2023-04-15T09:21:59;6.68;;;3.08;;
21239;SDS011;10778;48.962;9.018;2023-04-15T09:24:37;7.10;;;3.33;;
21239;SDS011;10778;48.962;9.018;2023-04-15T09:27:05;31.27;;;4.68;;
21239;SDS011;10778;48.962;9.018;2023-04-15T09:29:32;6.00;;;2.53;;
21239;SDS011;10778;48.962;9.018;2023-04-15T09:32:12;5.55;;;2.70;;
21239;SDS011;10778;48.962;9.018;2023-04-15T09:34:39;5.72;;;2.20;;
21239;SDS011;10778;48.962;9.018;2023-04-15T09:37:05;6.85;;;2.55;;
21239;SDS011;10778;48.962;9.018;2023-04-15T09:39:45;5.72;;;2.85;;
21239;SDS011;10778;48.962;9.018;2023-04-15T09:42:15;7.15;;;3.47;;
21239;SDS011;10778;48.962;9.018;2023-04-15T09:44:49;4.25;;;2.25;;
21239;SDS011;10778;48.962;9.018;2023-04-15T09:47:29;5.72;;;2.00;;
21239;SDS011;10778;48.962;9.018;2023-04-15T09:49:57;4.60;;;2.00;;
21239;SDS011;10778;48.962;9.018;2023-04-15T09:52:24;4.45;;;1.88;;
21239;SDS011;10778;48.962;9.018;2023-04-15T09:54:51;4.93;;;1.92;;
21239;SDS011;10778;48.962;9.018;2023-04-15T09:57:20;3.05;;;1.80;;
21239;SDS011;10778;48.962;9.018;2023-04-15T09:59:46;3.78;;;1.63;;
21239;SDS011;10778;48.962;9.018;2023-04-15T10:02:12;5.88;;;2.00;;
21239;SDS011;10778;48.962;9.018;2023-04-15T10:04:39;4.80;;;2.00;;
21239;SDS011;10778;48.962;9.018;2023-04-15T10:07:09;6.90;;;2.08;;
21239;SDS011;10778;48.962;9.018;2023-04-15T10:09:37;6.43;;;2.00;;
21239;SDS011;10778;48.962;9.018;2023-04-15T10:12:04;6.57;;;2.00;;
21239;SDS011;10778;48.962;9.018;2023-04-15T10:14:31;4.63;;;2.00;;
21239;SDS011;10778;48.962;9.018;2023-04-15T10:17:00;4.45;;;1.90;;
21239;SDS011;10778;48.962;9.018;2023-04-15T10:19:29;4.80;;;2.10;;
21239;SDS011;10778;48.962;9.018;2023-04-15T10:21:57;5.47;;;2.30;;
21239;SDS011;10778;48.962;9.018;2023-04-15T10:24:24;5.50;;;2.30;;
21239;SDS011;10778;48.962;9.018;2023-04-15T10:26:51;4.32;;;2.08;;
21239;SDS011;10778;48.962;9.018;2023-04-15T10:29:17;4.45;;;2.20;;
21239;SDS011;10778;48.962;9.018;2023-04-15T10:31:44;7.50;;;2.60;;
21239;SDS011;10778;48.962;9.018;2023-04-15T10:34:12;7.00;;;2.53;;
21239;SDS011;10778;48.962;9.018;2023-04-15T10:36:38;6.50;;;2.45;;
21239;SDS011;10778;48.962;9.018;2023-04-15T10:39:37;4.85;;;2.50;;
21239;SDS011;10778;48.962;9.018;2023-04-15T10:42:12;9.07;;;2.90;;
21239;SDS011;10778;48.962;9.018;2023-04-15T10:44:44;5.60;;;2.80;;
21239;SDS011;10778;48.962;9.018;2023-04-15T10:47:14;6.10;;;2.50;;
21239;SDS011;10778;48.962;9.018;2023-04-15T10:50:01;6.50;;;2.55;;
21239;SDS011;10778;48.962;9.018;2023-04-15T10:52:28;12.30;;;3.00;;
21239;SDS011;10778;48.962;9.018;2023-04-15T10:55:13;11.38;;;2.78;;
21239;SDS011;10778;48.962;9.018;2023-04-15T10:57:41;6.60;;;2.58;;
21239;SDS011;10778;48.962;9.018;2023-04-15T11:00:13;8.55;;;2.72;;
21239;SDS011;10778;48.962;9.018;2023-04-15T11:02:54;5.70;;;2.47;;
21239;SDS011;10778;48.962;9.018;2023-04-15T11:08:08;7.68;;;2.55;;
21239;SDS011;10778;48.962;9.018;2023-04-15T11:15:34;6.45;;;2.30;;
21239;SDS011;10778;48.962;9.018;2023-04-15T11:18:12;5.35;;;2.40;;
21239;SDS011;10778;48.962;9.018;2023-04-15T11:20:44;6.55;;;2.50;;
21239;SDS011;10778;48.962;9.018;2023-04-15T11:23:12;4.03;;;2.15;;
21239;SDS011;10778;48.962;9.018;2023-04-15T11:25:39;5.43;;;2.75;;
21239;SDS011;10778;48.962;9.018;2023-04-15T11:28:05;5.88;;;3.30;;
21239;SDS011;10778;48.962;9.018;2023-04-15T11:30:32;7.00;;;3.30;;
21239;SDS011;10778;48.962;9.018;2023-04-15T11:33:02;3.92;;;2.42;;
21239;SDS011;10778;48.962;9.018;2023-04-15T11:35:29;6.25;;;2.80;;
21239;SDS011;10778;48.962;9.018;2023-04-15T11:37:56;5.30;;;2.75;;
21239;SDS011;10778;48.962;9.018;2023-04-15T11:40:26;5.82;;;2.60;;
21239;SDS011;10778;48.962;9.018;2023-04-15T11:43:09;7.03;;;2.50;;
21239;SDS011;10778;48.962;9.018;2023-04-15T11:45:53;4.78;;;2.80;;
21239;SDS011;10778;48.962;9.018;2023-04-15T11:48:24;5.10;;;2.60;;
21239;SDS011;10778;48.962;9.018;2023-04-15T11:51:01;6.57;;;2.67;;
21239;SDS011;10778;48.962;9.018;2023-04-15T11:53:41;4.57;;;2.30;;
21239;SDS011;10778;48.962;9.018;2023-04-15T11:56:09;6.47;;;2.40;;
21239;SDS011;10778;48.962;9.018;2023-04-15T11:58:41;6.35;;;2.65;;
21239;SDS011;10778;48.962;9.018;2023-04-15T12:01:08;5.72;;;3.15;;
21239;SDS011;10778;48.962;9.018;2023-04-15T12:03:38;5.72;;;2.85;;
21239;SDS011;10778;48.962;9.018;2023-04-15T12:11:16;5.85;;;3.30;;
21239;SDS011;10778;48.962;9.018;2023-04-15T12:13:46;5.57;;;3.15;;
21239;SDS011;10778;48.962;9.018;2023-04-15T12:16:19;5.72;;;3.80;;
21239;SDS011;10778;48.962;9.018;2023-04-15T12:18:47;7.80;;;3.50;;
21239;SDS011;10778;48.962;9.018;2023-04-15T12:21:19;5.05;;;3.10;;
21239;SDS011;10778;48.962;9.018;2023-04-15T12:23:50;4.80;;;2.83;;
21239;SDS011;10778;48.962;9.018;2023-04-15T12:26:17;5.85;;;2.95;;
21239;SDS011;10778;48.962;9.018;2023-04-15T12:28:55;6.97;;;3.17;;
21239;SDS011;10778;48.962;9.018;2023-04-15T12:31:25;4.75;;;2.80;;
21239;SDS011;10778;48.962;9.018;2023-04-15T12:33:53;5.32;;;2.83;;
21239;SDS011;10778;48.962;9.018;2023-04-15T12:36:20;5.65;;;2.50;;
21239;SDS011;10778;48.962;9.018;2023-04-15T12:38:47;5.78;;;2.38;;
21239;SDS011;10778;48.962;9.018;2023-04-15T12:41:13;13.20;;;5.45;;
21239;SDS011;10778;48.962;9.018;2023-04-15T12:43:39;7.45;;;3.25;;
21239;SDS011;10778;48.962;9.018;2023-04-15T12:46:06;6.05;;;2.63;;
21239;SDS011;10778;48.962;9.018;2023-04-15T12:48:33;4.18;;;2.08;;
21239;SDS011;10778;48.962;9.018;2023-04-15T12:50:59;6.95;;;3.42;;
21239;SDS011;10778;48.962;9.018;2023-04-15T12:53:26;5.10;;;2.00;;
21239;SDS011;10778;48.962;9.018;2023-04-15T12:55:53;3.97;;;1.85;;
21239;SDS011;10778;48.962;9.018;2023-04-15T12:58:19;3.80;;;1.70;;
21239;SDS011;10778;48.962;9.018;2023-04-15T13:00:46;3.20;;;1.35;;
21239;SDS011;10778;48.962;9.018;2023-04-15T13:03:13;3.40;;;1.40;;
21239;SDS011;10778;48.962;9.018;2023-04-15T13:05:40;3.03;;;1.17;;
21239;SDS011;10778;48.962;9.018;2023-04-15T13:08:06;3.03;;;1.30;;
21239;SDS011;10778;48.962;9.018;2023-04-15T13:10:34;3.00;;;1.20;;
21239;SDS011;10778;48.962;9.018;2023-04-15T13:13:03;2.83;;;1.10;;
21239;SDS011;10778;48.962;9.018;2023-04-15T13:15:30;1.85;;;1.00;;
21239;SDS011;10778;48.962;9.018;2023-04-15T13:17:56;2.78;;;1.13;;
21239;SDS011;10778;48.962;9.018;2023-04-15T13:20:22;2.15;;;1.20;;
21239;SDS011;10778;48.962;9.018;2023-04-15T13:22:48;4.57;;;1.45;;
21239;SDS011;10778;48.962;9.018;2023-04-15T13:25:15;3.15;;;1.25;;
21239;SDS011;10778;48.962;9.018;2023-04-15T13:27:41;3.58;;;1.10;;
21239;SDS011;10778;48.962;9.018;2023-04-15T13:30:07;3.80;;;1.08;;
21239;SDS011;10778;48.962;9.018;2023-04-15T13:32:33;3.53;;;1.00;;
21239;SDS011;10778;48.962;9.018;2023-04-15T13:35:00;2.17;;;0.90;;
21239;SDS011;10778;48.962;9.018;2023-04-15T13:37:26;2.13;;;0.80;;
21239;SDS011;10778;48.962;9.018;2023-04-15T13:39:53;2.10;;;1.05;;
21239;SDS011;10778;48.962;9.018;2023-04-15T13:42:20;3.38;;;1.10;;
21239;SDS011;10778;48.962;9.018;2023-04-15T13:44:48;2.45;;;1.30;;
21239;SDS011;10778;48.962;9.018;2023-04-15T13:47:14;2.50;;;1.23;;
21239;SDS011;10778;48.962;9.018;2023-04-15T13:49:40;3.10;;;1.30;;
21239;SDS011;10778;48.962;9.018;2023-04-15T13:52:06;2.47;;;1.42;;
21239;SDS011;10778;48.962;9.018;2023-04-15T13:54:32;2.92;;;1.33;;
21239;SDS011;10778;48.962;9.018;2023-04-15T13:56:58;2.60;;;1.30;;
21239;SDS011;10778;48.962;9.018;2023-04-15T13:59:24;3.88;;;1.30;;
21239;SDS011;10778;48.962;9.018;2023-04-15T14:01:50;2.47;;;1.15;;
21239;SDS011;10778;48.962;9.018;2023-04-15T14:04:17;2.42;;;1.20;;
21239;SDS011;10778;48.962;9.018;2023-04-15T14:06:43;2.67;;;1.20;;
21239;SDS011;10778;48.962;9.018;2023-04-15T14:09:10;3.40;;;1.65;;
21239;SDS011;10778;48.962;9.018;2023-04-15T14:11:39;3.17;;;1.80;;
21239;SDS011;10778;48.962;9.018;2023-04-15T14:14:05;2.58;;;1.42;;
21239;SDS011;10778;48.962;9.018;2023-04-15T14:16:31;3.13;;;1.55;;
21239;SDS011;10778;48.962;9.018;2023-04-15T14:18:58;3.25;;;1.30;;
21239;SDS011;10778;48.962;9.018;2023-04-15T14:21:24;3.80;;;1.60;;
21239;SDS011;10778;48.962;9.018;2023-04-15T14:23:52;3.50;;;1.52;;
21239;SDS011;10778;48.962;9.018;2023-04-15T14:26:18;3.63;;;1.58;;
21239;SDS011;10778;48.962;9.018;2023-04-15T14:28:44;5.13;;;1.90;;
21239;SDS011;10778;48.962;9.018;2023-04-15T14:31:11;3.25;;;1.70;;
21239;SDS011;10778;48.962;9.018;2023-04-15T14:33:37;2.08;;;1.20;;
21239;SDS011;10778;48.962;9.018;2023-04-15T14:36:03;3.10;;;1.30;;
21239;SDS011;10778;48.962;9.018;2023-04-15T14:38:29;2.65;;;1.38;;
21239;SDS011;10778;48.962;9.018;2023-04-15T14:40:56;3.58;;;1.50;;
21239;SDS011;10778;48.962;9.018;2023-04-15T14:43:22;4.38;;;1.60;;
21239;SDS011;10778;48.962;9.018;2023-04-15T14:45:48;3.60;;;1.40;;
21239;SDS011;10778;48.962;9.018;2023-04-15T14:48:14;2.65;;;1.58;;
21239;SDS011;10778;48.962;9.018;2023-04-15T14:50:40;3.00;;;1.52;;
21239;SDS011;10778;48.962;9.018;2023-04-15T14:53:06;2.00;;;1.40;;
21239;SDS011;10778;48.962;9.018;2023-04-15T14:55:32;2.28;;;1.40;;
21239;SDS011;10778;48.962;9.018;2023-04-15T14:57:58;2.97;;;1.20;;
21239;SDS011;10778;48.962;9.018;2023-04-15T15:00:24;1.95;;;1.10;;
21239;SDS011;10778;48.962;9.018;2023-04-15T15:02:50;3.35;;;1.05;;
21239;SDS011;10778;48.962;9.018;2023-04-15T15:05:16;3.65;;;1.15;;
21239;SDS011;10778;48.962;9.018;2023-04-15T15:07:42;2.97;;;1.13;;
21239;SDS011;10778;48.962;9.018;2023-04-15T15:10:08;4.00;;;1.20;;
21239;SDS011;10778;48.962;9.018;2023-04-15T15:12:34;3.22;;;1.02;;
21239;SDS011;10778;48.962;9.018;2023-04-15T15:15:01;2.03;;;1.02;;
21239;SDS011;10778;48.962;9.018;2023-04-15T15:17:29;2.20;;;1.08;;